Depesza METAR lotniska Warszawa-Okęcie

METAR = EPWA 221530Z 26014G27KT 230V300 9999 -RA BKN010 OVC018 08/07 Q1001 RERA NOSIG

STACJA......... EPWA - Warszawa-Okęcie (WAW)
POMIAR......... Mon Dec 22, 16:30 CET
TERAZ.......... Mon Dec 22, 16:36 CET
CZAS........... 6 min temu
WIATR.......... zachodni (W) z prędkością 26 km/h, w porywach do 50 km/h
WIDZIALNOŚĆ.. powyżej 10 kilometrów
WARUNKI........ słaby: deszcz 
CHMURY......... zachmurzenie całkowite (8/8)
TEMPERATURA.... 8°C
T.PUNKTU ROSY.. 7°C
WILGOTNOŚĆ... 93%
T.ODCZUWALNA... 4°C
CIŚNIENIE..... 1001 hPa
WCZEŚNIEJ..... obserwowane były zjawiska: deszcz
PROGNOZA....... bez nagłych zmian w ciągu 2h

Depesza METAR lotniska Kraków-Balice

METAR = EPKK 221500Z 24020G30KT 9999 -RA SCT020 OVC033 07/05 Q1010

STACJA......... EPKK - Kraków-Balice (KRK)
POMIAR......... Mon Dec 22, 16:00 CET
TERAZ.......... Mon Dec 22, 16:36 CET
CZAS........... 36 min temu
WIATR.......... zachodni południowo-zachodni (WSW) z prędkością 37 km/h, w porywach do 56 km/h
WIDZIALNOŚĆ.. powyżej 10 kilometrów
WARUNKI........ słaby: deszcz 
CHMURY......... zachmurzenie całkowite (8/8)
TEMPERATURA.... 7°C
T.PUNKTU ROSY.. 5°C
WILGOTNOŚĆ... 87%
T.ODCZUWALNA... 2°C
CIŚNIENIE..... 1010 hPa

Depesza METAR lotniska Łódź-Lublinek

METAR = EPLL 221530Z 25015KT 8000 -RA BKN012 08/06 Q1004

STACJA......... EPLL - Łódź-Lublinek (LCJ)
POMIAR......... Mon Dec 22, 16:30 CET
TERAZ.......... Mon Dec 22, 16:36 CET
CZAS........... 6 min temu
WIATR.......... zachodni południowo-zachodni (WSW) z prędkością 28 km/h
WIDZIALNOŚĆ.. 8000 metrów
WARUNKI........ słaby: deszcz 
CHMURY......... zachmurzenie średnie (5/8-7/8)
TEMPERATURA.... 8°C
T.PUNKTU ROSY.. 6°C
WILGOTNOŚĆ... 87%
T.ODCZUWALNA... 4°C
CIŚNIENIE..... 1004 hPa

Depesza METAR lotniska Wrocław-Strachowice

METAR = EPWR 221500Z 27020G35KT 9999 BKN026 12/06 Q1010

STACJA......... EPWR - Wrocław-Strachowice (WRO)
POMIAR......... Mon Dec 22, 16:00 CET
TERAZ.......... Mon Dec 22, 16:36 CET
CZAS........... 36 min temu
WIATR.......... zachodni (W) z prędkością 37 km/h, w porywach do 65 km/h
WIDZIALNOŚĆ.. powyżej 10 kilometrów
CHMURY......... zachmurzenie średnie (5/8-7/8)
TEMPERATURA.... 12°C
T.PUNKTU ROSY.. 6°C
WILGOTNOŚĆ... 67%
CIŚNIENIE..... 1010 hPa

Depesza METAR lotniska Katowice-Pyrzowice

METAR = EPKT 221530Z 23011KT 9999 FEW009 BKN023 06/04 Q1010

STACJA......... EPKT - Katowice-Pyrzowice (KTW)
POMIAR......... Mon Dec 22, 16:30 CET
TERAZ.......... Mon Dec 22, 16:36 CET
CZAS........... 6 min temu
WIATR.......... południowo-zachodni (SW) z prędkością 20 km/h
WIDZIALNOŚĆ.. powyżej 10 kilometrów
CHMURY......... zachmurzenie średnie (5/8-7/8)
TEMPERATURA.... 6°C
T.PUNKTU ROSY.. 4°C
WILGOTNOŚĆ... 87%
T.ODCZUWALNA... 2°C
CIŚNIENIE..... 1010 hPa

Depesza METAR lotniska Gdańsk

METAR = EPGD 221530Z 29015G25KT 5000 RA BR BKN008 09/08 Q0996

STACJA......... EPGD - Gdańsk im. Lecha Wałęsy (GDN)
POMIAR......... Mon Dec 22, 16:30 CET
TERAZ.......... Mon Dec 22, 16:36 CET
CZAS........... 6 min temu
WIATR.......... zachodni północno-zachodni (WNW) z prędkością 28 km/h, w porywach do 46 km/h
WIDZIALNOŚĆ.. 5000 metrów
WARUNKI........ deszcz  & zamglenie 
CHMURY......... zachmurzenie średnie (5/8-7/8)
TEMPERATURA.... 9°C
T.PUNKTU ROSY.. 8°C
WILGOTNOŚĆ... 94%
T.ODCZUWALNA... 6°C
CIŚNIENIE..... 996 hPa

Depesza METAR lotniska Poznań-Ławica

METAR = EPPO 221530Z 26024G34KT 9999 -RA BKN012 BKN022 09/07 Q1005

STACJA......... EPPO - Poznań-Ławica (POZ)
POMIAR......... Mon Dec 22, 16:30 CET
TERAZ.......... Mon Dec 22, 16:36 CET
CZAS........... 6 min temu
WIATR.......... zachodni (W) z prędkością 44 km/h, w porywach do 63 km/h
WIDZIALNOŚĆ.. powyżej 10 kilometrów
WARUNKI........ słaby: deszcz 
CHMURY......... zachmurzenie średnie (5/8-7/8)
TEMPERATURA.... 9°C
T.PUNKTU ROSY.. 7°C
WILGOTNOŚĆ... 87%
T.ODCZUWALNA... 4°C
CIŚNIENIE..... 1005 hPa

Depesza METAR lotniska Rzeszów-Jasionka

METAR = EPRZ 221500Z 25018G29KT 9999 OVC023 07/05 Q1009

STACJA......... EPRZ - Rzeszów-Jasionka (RZE)
POMIAR......... Mon Dec 22, 16:00 CET
TERAZ.......... Mon Dec 22, 16:36 CET
CZAS........... 36 min temu
WIATR.......... zachodni południowo-zachodni (WSW) z prędkością 33 km/h, w porywach do 54 km/h
WIDZIALNOŚĆ.. powyżej 10 kilometrów
CHMURY......... zachmurzenie całkowite (8/8)
TEMPERATURA.... 7°C
T.PUNKTU ROSY.. 5°C
WILGOTNOŚĆ... 87%
T.ODCZUWALNA... 3°C
CIŚNIENIE..... 1009 hPa

Depesza METAR lotniska Szczecin-Goleniów

METAR = EPSC 221500Z 26014KT 8000 -RA SCT006 BKN009 10/10 Q1002 RERA

STACJA......... EPSC - Szczecin-Goleniów (SZZ)
POMIAR......... Mon Dec 22, 16:00 CET
TERAZ.......... Mon Dec 22, 16:36 CET
CZAS........... 36 min temu
WIATR.......... zachodni (W) z prędkością 26 km/h
WIDZIALNOŚĆ.. 8000 metrów
WARUNKI........ słaby: deszcz 
CHMURY......... zachmurzenie średnie (5/8-7/8)
TEMPERATURA.... 10°C
T.PUNKTU ROSY.. 10°C
WILGOTNOŚĆ... 100%
T.ODCZUWALNA... 7°C
CIŚNIENIE..... 1002 hPa
WCZEŚNIEJ..... obserwowane były zjawiska: deszcz

Depesza METAR lotniska Lublin-Świdnik

METAR = EPLB 170930Z 08006KT 2000 -RA BR FEW006 OVC011 12/11 Q1009

STACJA......... EPLB - Lublin-Świdnik (LUZ)
POMIAR......... Fri Oct 17, 10:30 CEST
TERAZ.......... Mon Dec 22, 16:36 CET
CZAS........... 1591:06 godz temu
WIATR.......... wschodni (E) z prędkością 11 km/h
WIDZIALNOŚĆ.. 2000 metrów
WARUNKI........ słaby: deszcz  & zamglenie 
CHMURY......... zachmurzenie całkowite (8/8)
TEMPERATURA.... 12°C
T.PUNKTU ROSY.. 11°C
WILGOTNOŚĆ... 94%
CIŚNIENIE..... 1009 hPa

Sprawdź też: prognoza pogody dla miast w Polsce!